sensor_id;sensor_type;location;lat;lon;timestamp;P1;durP1;ratioP1;P2;durP2;ratioP2
1294;SDS011;640;48.310;11.728;2023-05-07T00:01:49;4.47;;;3.55;;
1294;SDS011;640;48.310;11.728;2023-05-07T00:04:20;6.93;;;4.20;;
1294;SDS011;640;48.310;11.728;2023-05-07T00:06:48;7.20;;;5.28;;
1294;SDS011;640;48.310;11.728;2023-05-07T00:09:17;10.82;;;6.38;;
1294;SDS011;640;48.310;11.728;2023-05-07T00:11:45;7.75;;;5.50;;
1294;SDS011;640;48.310;11.728;2023-05-07T00:14:13;6.40;;;4.78;;
1294;SDS011;640;48.310;11.728;2023-05-07T00:16:41;11.65;;;5.90;;
1294;SDS011;640;48.310;11.728;2023-05-07T00:19:10;9.05;;;5.65;;
1294;SDS011;640;48.310;11.728;2023-05-07T00:21:39;8.65;;;5.38;;
1294;SDS011;640;48.310;11.728;2023-05-07T00:24:08;11.17;;;6.20;;
1294;SDS011;640;48.310;11.728;2023-05-07T00:26:36;8.35;;;6.20;;
1294;SDS011;640;48.310;11.728;2023-05-07T00:29:05;9.68;;;5.00;;
1294;SDS011;640;48.310;11.728;2023-05-07T00:31:33;9.13;;;5.65;;
1294;SDS011;640;48.310;11.728;2023-05-07T00:34:02;8.90;;;5.72;;
1294;SDS011;640;48.310;11.728;2023-05-07T00:36:30;8.70;;;5.50;;
1294;SDS011;640;48.310;11.728;2023-05-07T00:39:00;9.45;;;5.55;;
1294;SDS011;640;48.310;11.728;2023-05-07T00:41:30;6.63;;;4.57;;
1294;SDS011;640;48.310;11.728;2023-05-07T00:43:58;9.98;;;4.97;;
1294;SDS011;640;48.310;11.728;2023-05-07T00:46:27;10.52;;;4.32;;
1294;SDS011;640;48.310;11.728;2023-05-07T00:48:57;8.50;;;4.35;;
1294;SDS011;640;48.310;11.728;2023-05-07T00:51:26;7.85;;;4.10;;
1294;SDS011;640;48.310;11.728;2023-05-07T00:53:54;6.18;;;3.60;;
1294;SDS011;640;48.310;11.728;2023-05-07T00:56:24;8.90;;;3.78;;
1294;SDS011;640;48.310;11.728;2023-05-07T00:58:52;7.40;;;4.43;;
1294;SDS011;640;48.310;11.728;2023-05-07T01:01:21;5.13;;;3.63;;
1294;SDS011;640;48.310;11.728;2023-05-07T01:03:49;6.63;;;3.75;;
1294;SDS011;640;48.310;11.728;2023-05-07T01:06:18;5.53;;;3.00;;
1294;SDS011;640;48.310;11.728;2023-05-07T01:08:48;4.60;;;3.35;;
1294;SDS011;640;48.310;11.728;2023-05-07T01:11:17;4.30;;;3.20;;
1294;SDS011;640;48.310;11.728;2023-05-07T01:13:47;8.45;;;3.78;;
1294;SDS011;640;48.310;11.728;2023-05-07T01:16:17;4.53;;;3.30;;
1294;SDS011;640;48.310;11.728;2023-05-07T01:18:45;5.63;;;4.00;;
1294;SDS011;640;48.310;11.728;2023-05-07T01:21:16;7.60;;;3.95;;
1294;SDS011;640;48.310;11.728;2023-05-07T01:23:47;7.78;;;4.55;;
1294;SDS011;640;48.310;11.728;2023-05-07T01:26:15;7.38;;;5.45;;
1294;SDS011;640;48.310;11.728;2023-05-07T01:28:46;7.07;;;5.63;;
1294;SDS011;640;48.310;11.728;2023-05-07T01:31:14;8.27;;;5.80;;
1294;SDS011;640;48.310;11.728;2023-05-07T01:33:44;8.77;;;6.15;;
1294;SDS011;640;48.310;11.728;2023-05-07T01:36:12;10.00;;;6.80;;
1294;SDS011;640;48.310;11.728;2023-05-07T01:38:41;10.00;;;6.60;;
1294;SDS011;640;48.310;11.728;2023-05-07T01:41:11;11.85;;;6.47;;
1294;SDS011;640;48.310;11.728;2023-05-07T01:43:40;8.07;;;6.47;;
1294;SDS011;640;48.310;11.728;2023-05-07T01:46:09;8.98;;;6.85;;
1294;SDS011;640;48.310;11.728;2023-05-07T01:48:38;10.63;;;5.72;;
1294;SDS011;640;48.310;11.728;2023-05-07T01:51:07;7.55;;;5.70;;
1294;SDS011;640;48.310;11.728;2023-05-07T01:53:36;6.93;;;5.80;;
1294;SDS011;640;48.310;11.728;2023-05-07T01:56:05;7.00;;;5.50;;
1294;SDS011;640;48.310;11.728;2023-05-07T01:58:35;7.53;;;5.05;;
1294;SDS011;640;48.310;11.728;2023-05-07T02:01:04;6.50;;;5.10;;
1294;SDS011;640;48.310;11.728;2023-05-07T02:03:32;6.00;;;5.05;;
1294;SDS011;640;48.310;11.728;2023-05-07T02:06:01;8.65;;;6.22;;
1294;SDS011;640;48.310;11.728;2023-05-07T02:08:29;8.18;;;5.95;;
1294;SDS011;640;48.310;11.728;2023-05-07T02:10:57;12.98;;;8.30;;
1294;SDS011;640;48.310;11.728;2023-05-07T02:13:26;10.70;;;7.97;;
1294;SDS011;640;48.310;11.728;2023-05-07T02:15:58;7.25;;;5.47;;
1294;SDS011;640;48.310;11.728;2023-05-07T02:18:26;6.65;;;5.35;;
1294;SDS011;640;48.310;11.728;2023-05-07T02:20:54;9.02;;;6.10;;
1294;SDS011;640;48.310;11.728;2023-05-07T02:23:23;8.02;;;4.88;;
1294;SDS011;640;48.310;11.728;2023-05-07T02:25:51;5.60;;;4.05;;
1294;SDS011;640;48.310;11.728;2023-05-07T02:28:19;6.43;;;5.55;;
1294;SDS011;640;48.310;11.728;2023-05-07T02:30:48;11.40;;;5.82;;
1294;SDS011;640;48.310;11.728;2023-05-07T02:33:17;7.38;;;5.25;;
1294;SDS011;640;48.310;11.728;2023-05-07T02:38:15;5.28;;;4.20;;
1294;SDS011;640;48.310;11.728;2023-05-07T02:40:43;5.88;;;4.65;;
1294;SDS011;640;48.310;11.728;2023-05-07T02:43:11;6.57;;;5.22;;
1294;SDS011;640;48.310;11.728;2023-05-07T02:45:40;8.90;;;5.63;;
1294;SDS011;640;48.310;11.728;2023-05-07T02:48:10;8.30;;;5.63;;
1294;SDS011;640;48.310;11.728;2023-05-07T02:50:39;8.93;;;5.75;;
1294;SDS011;640;48.310;11.728;2023-05-07T02:53:08;8.70;;;6.03;;
1294;SDS011;640;48.310;11.728;2023-05-07T02:55:36;10.05;;;6.10;;
1294;SDS011;640;48.310;11.728;2023-05-07T02:58:04;6.63;;;5.15;;
1294;SDS011;640;48.310;11.728;2023-05-07T03:00:33;8.43;;;5.15;;
1294;SDS011;640;48.310;11.728;2023-05-07T03:03:01;6.10;;;4.70;;
1294;SDS011;640;48.310;11.728;2023-05-07T03:05:29;6.65;;;4.88;;
1294;SDS011;640;48.310;11.728;2023-05-07T03:07:59;6.70;;;5.20;;
1294;SDS011;640;48.310;11.728;2023-05-07T03:10:28;11.10;;;5.17;;
1294;SDS011;640;48.310;11.728;2023-05-07T03:12:56;8.65;;;5.30;;
1294;SDS011;640;48.310;11.728;2023-05-07T03:15:24;8.40;;;5.00;;
1294;SDS011;640;48.310;11.728;2023-05-07T03:17:53;5.40;;;4.40;;
1294;SDS011;640;48.310;11.728;2023-05-07T03:20:21;5.68;;;4.43;;
1294;SDS011;640;48.310;11.728;2023-05-07T03:22:50;8.02;;;5.60;;
1294;SDS011;640;48.310;11.728;2023-05-07T03:25:19;6.38;;;4.80;;
1294;SDS011;640;48.310;11.728;2023-05-07T03:27:47;7.40;;;4.37;;
1294;SDS011;640;48.310;11.728;2023-05-07T03:30:16;8.02;;;4.07;;
1294;SDS011;640;48.310;11.728;2023-05-07T03:32:45;6.93;;;4.55;;
1294;SDS011;640;48.310;11.728;2023-05-07T03:35:13;7.78;;;4.53;;
1294;SDS011;640;48.310;11.728;2023-05-07T03:37:42;6.95;;;4.35;;
1294;SDS011;640;48.310;11.728;2023-05-07T03:40:10;10.32;;;4.70;;
1294;SDS011;640;48.310;11.728;2023-05-07T03:42:41;6.80;;;4.78;;
1294;SDS011;640;48.310;11.728;2023-05-07T03:45:09;7.32;;;5.47;;
1294;SDS011;640;48.310;11.728;2023-05-07T03:47:38;7.10;;;4.78;;
1294;SDS011;640;48.310;11.728;2023-05-07T03:50:06;9.10;;;5.03;;
1294;SDS011;640;48.310;11.728;2023-05-07T03:52:35;7.70;;;5.40;;
1294;SDS011;640;48.310;11.728;2023-05-07T03:55:04;9.48;;;4.85;;
1294;SDS011;640;48.310;11.728;2023-05-07T03:57:33;8.02;;;4.88;;
1294;SDS011;640;48.310;11.728;2023-05-07T04:00:03;7.40;;;5.22;;
1294;SDS011;640;48.310;11.728;2023-05-07T04:02:33;7.25;;;5.60;;
1294;SDS011;640;48.310;11.728;2023-05-07T04:05:02;6.65;;;4.80;;
1294;SDS011;640;48.310;11.728;2023-05-07T04:07:30;7.72;;;4.47;;
1294;SDS011;640;48.310;11.728;2023-05-07T04:09:58;6.88;;;5.07;;
1294;SDS011;640;48.310;11.728;2023-05-07T04:12:27;7.25;;;5.40;;
1294;SDS011;640;48.310;11.728;2023-05-07T04:14:55;11.63;;;6.45;;
1294;SDS011;640;48.310;11.728;2023-05-07T04:17:25;8.77;;;6.57;;
1294;SDS011;640;48.310;11.728;2023-05-07T04:19:53;8.70;;;6.33;;
1294;SDS011;640;48.310;11.728;2023-05-07T04:22:21;11.82;;;7.05;;
1294;SDS011;640;48.310;11.728;2023-05-07T04:24:49;9.95;;;6.60;;
1294;SDS011;640;48.310;11.728;2023-05-07T04:27:18;7.65;;;5.70;;
1294;SDS011;640;48.310;11.728;2023-05-07T04:29:47;9.63;;;5.57;;
1294;SDS011;640;48.310;11.728;2023-05-07T04:32:15;12.70;;;7.43;;
1294;SDS011;640;48.310;11.728;2023-05-07T04:34:45;11.30;;;8.30;;
1294;SDS011;640;48.310;11.728;2023-05-07T04:37:14;10.50;;;6.87;;
1294;SDS011;640;48.310;11.728;2023-05-07T04:39:42;9.27;;;6.15;;
1294;SDS011;640;48.310;11.728;2023-05-07T04:42:14;9.73;;;7.28;;
1294;SDS011;640;48.310;11.728;2023-05-07T04:44:43;10.90;;;7.30;;
1294;SDS011;640;48.310;11.728;2023-05-07T04:47:11;8.80;;;7.05;;
1294;SDS011;640;48.310;11.728;2023-05-07T04:49:40;11.88;;;7.32;;
1294;SDS011;640;48.310;11.728;2023-05-07T04:52:10;8.43;;;7.00;;
1294;SDS011;640;48.310;11.728;2023-05-07T04:54:38;11.47;;;7.03;;
1294;SDS011;640;48.310;11.728;2023-05-07T04:57:06;9.02;;;7.07;;
1294;SDS011;640;48.310;11.728;2023-05-07T04:59:34;6.53;;;5.60;;
1294;SDS011;640;48.310;11.728;2023-05-07T05:02:03;7.05;;;6.20;;
1294;SDS011;640;48.310;11.728;2023-05-07T05:04:31;10.43;;;5.63;;
1294;SDS011;640;48.310;11.728;2023-05-07T05:06:59;5.13;;;4.55;;
1294;SDS011;640;48.310;11.728;2023-05-07T05:09:29;5.18;;;4.68;;
1294;SDS011;640;48.310;11.728;2023-05-07T05:11:57;7.13;;;5.07;;
1294;SDS011;640;48.310;11.728;2023-05-07T05:14:26;5.57;;;5.00;;
1294;SDS011;640;48.310;11.728;2023-05-07T05:16:55;6.28;;;5.05;;
1294;SDS011;640;48.310;11.728;2023-05-07T05:19:23;11.95;;;5.90;;
1294;SDS011;640;48.310;11.728;2023-05-07T05:21:51;9.32;;;5.68;;
1294;SDS011;640;48.310;11.728;2023-05-07T05:24:19;7.55;;;5.57;;
1294;SDS011;640;48.310;11.728;2023-05-07T05:26:49;5.95;;;5.03;;
1294;SDS011;640;48.310;11.728;2023-05-07T05:29:17;6.15;;;5.07;;
1294;SDS011;640;48.310;11.728;2023-05-07T05:31:46;5.30;;;4.80;;
1294;SDS011;640;48.310;11.728;2023-05-07T05:34:14;6.25;;;5.65;;
1294;SDS011;640;48.310;11.728;2023-05-07T05:36:44;7.80;;;5.35;;
1294;SDS011;640;48.310;11.728;2023-05-07T05:39:12;7.57;;;5.63;;
1294;SDS011;640;48.310;11.728;2023-05-07T05:41:40;6.75;;;5.63;;
1294;SDS011;640;48.310;11.728;2023-05-07T05:44:10;6.40;;;5.70;;
1294;SDS011;640;48.310;11.728;2023-05-07T05:46:38;7.43;;;5.63;;
1294;SDS011;640;48.310;11.728;2023-05-07T05:49:07;7.93;;;6.53;;
1294;SDS011;640;48.310;11.728;2023-05-07T05:51:35;8.35;;;6.80;;
1294;SDS011;640;48.310;11.728;2023-05-07T05:54:03;9.60;;;6.22;;
1294;SDS011;640;48.310;11.728;2023-05-07T05:56:32;7.00;;;6.30;;
1294;SDS011;640;48.310;11.728;2023-05-07T05:59:00;9.18;;;7.15;;
1294;SDS011;640;48.310;11.728;2023-05-07T06:01:30;8.35;;;6.95;;
1294;SDS011;640;48.310;11.728;2023-05-07T06:03:59;8.47;;;6.93;;
1294;SDS011;640;48.310;11.728;2023-05-07T06:06:27;11.27;;;7.47;;
1294;SDS011;640;48.310;11.728;2023-05-07T06:08:55;11.77;;;7.65;;
1294;SDS011;640;48.310;11.728;2023-05-07T06:11:24;10.45;;;8.15;;
1294;SDS011;640;48.310;11.728;2023-05-07T06:13:52;12.23;;;8.50;;
1294;SDS011;640;48.310;11.728;2023-05-07T06:16:21;9.35;;;7.93;;
1294;SDS011;640;48.310;11.728;2023-05-07T06:18:50;10.27;;;7.75;;
1294;SDS011;640;48.310;11.728;2023-05-07T06:21:19;10.23;;;8.27;;
1294;SDS011;640;48.310;11.728;2023-05-07T06:23:47;10.10;;;8.10;;
1294;SDS011;640;48.310;11.728;2023-05-07T06:26:15;10.73;;;8.02;;
1294;SDS011;640;48.310;11.728;2023-05-07T06:28:43;9.13;;;7.80;;
1294;SDS011;640;48.310;11.728;2023-05-07T06:31:12;10.05;;;8.13;;
1294;SDS011;640;48.310;11.728;2023-05-07T06:33:42;10.27;;;7.95;;
1294;SDS011;640;48.310;11.728;2023-05-07T06:36:13;9.80;;;7.65;;
1294;SDS011;640;48.310;11.728;2023-05-07T06:38:42;9.32;;;7.97;;
1294;SDS011;640;48.310;11.728;2023-05-07T06:41:10;11.32;;;8.40;;
1294;SDS011;640;48.310;11.728;2023-05-07T06:43:38;12.05;;;8.00;;
1294;SDS011;640;48.310;11.728;2023-05-07T06:46:06;9.68;;;7.32;;
1294;SDS011;640;48.310;11.728;2023-05-07T06:48:35;8.63;;;7.25;;
1294;SDS011;640;48.310;11.728;2023-05-07T06:51:03;9.07;;;7.50;;
1294;SDS011;640;48.310;11.728;2023-05-07T06:53:33;10.48;;;7.57;;
1294;SDS011;640;48.310;11.728;2023-05-07T06:58:30;10.75;;;7.93;;
1294;SDS011;640;48.310;11.728;2023-05-07T07:00:59;9.25;;;7.25;;
1294;SDS011;640;48.310;11.728;2023-05-07T07:03:27;10.15;;;7.88;;
1294;SDS011;640;48.310;11.728;2023-05-07T07:05:55;9.35;;;8.18;;
1294;SDS011;640;48.310;11.728;2023-05-07T07:08:24;10.02;;;8.43;;
1294;SDS011;640;48.310;11.728;2023-05-07T07:10:53;12.80;;;8.52;;
1294;SDS011;640;48.310;11.728;2023-05-07T07:13:22;13.37;;;9.43;;
1294;SDS011;640;48.310;11.728;2023-05-07T07:15:51;11.93;;;8.90;;
1294;SDS011;640;48.310;11.728;2023-05-07T07:18:19;12.65;;;9.77;;
1294;SDS011;640;48.310;11.728;2023-05-07T07:20:48;13.02;;;9.52;;
1294;SDS011;640;48.310;11.728;2023-05-07T07:23:16;13.70;;;10.32;;
1294;SDS011;640;48.310;11.728;2023-05-07T07:25:45;12.80;;;9.45;;
1294;SDS011;640;48.310;11.728;2023-05-07T07:28:14;11.00;;;9.00;;
1294;SDS011;640;48.310;11.728;2023-05-07T07:30:43;12.82;;;9.05;;
1294;SDS011;640;48.310;11.728;2023-05-07T07:33:11;13.98;;;9.77;;
1294;SDS011;640;48.310;11.728;2023-05-07T07:35:39;12.82;;;8.02;;
1294;SDS011;640;48.310;11.728;2023-05-07T07:38:07;12.20;;;9.23;;
1294;SDS011;640;48.310;11.728;2023-05-07T07:40:36;13.45;;;9.43;;
1294;SDS011;640;48.310;11.728;2023-05-07T07:43:04;12.30;;;9.50;;
1294;SDS011;640;48.310;11.728;2023-05-07T07:45:34;12.68;;;8.88;;
1294;SDS011;640;48.310;11.728;2023-05-07T07:48:03;11.70;;;8.40;;
1294;SDS011;640;48.310;11.728;2023-05-07T07:50:31;12.95;;;9.07;;
1294;SDS011;640;48.310;11.728;2023-05-07T07:53:11;11.13;;;9.18;;
1294;SDS011;640;48.310;11.728;2023-05-07T07:55:39;11.05;;;8.40;;
1294;SDS011;640;48.310;11.728;2023-05-07T07:58:08;11.95;;;9.93;;
1294;SDS011;640;48.310;11.728;2023-05-07T08:00:37;14.88;;;9.93;;
1294;SDS011;640;48.310;11.728;2023-05-07T08:03:06;12.07;;;8.10;;
1294;SDS011;640;48.310;11.728;2023-05-07T08:05:37;11.82;;;8.85;;
1294;SDS011;640;48.310;11.728;2023-05-07T08:08:06;12.48;;;9.27;;
1294;SDS011;640;48.310;11.728;2023-05-07T08:10:34;11.18;;;9.60;;
1294;SDS011;640;48.310;11.728;2023-05-07T08:13:05;12.43;;;10.25;;
1294;SDS011;640;48.310;11.728;2023-05-07T08:15:33;13.60;;;9.93;;
1294;SDS011;640;48.310;11.728;2023-05-07T08:18:03;13.05;;;9.30;;
1294;SDS011;640;48.310;11.728;2023-05-07T08:20:32;12.40;;;9.23;;
1294;SDS011;640;48.310;11.728;2023-05-07T08:23:02;10.73;;;8.73;;
1294;SDS011;640;48.310;11.728;2023-05-07T08:25:32;10.90;;;8.05;;
1294;SDS011;640;48.310;11.728;2023-05-07T08:28:00;11.18;;;8.88;;
1294;SDS011;640;48.310;11.728;2023-05-07T08:30:30;12.70;;;8.60;;
1294;SDS011;640;48.310;11.728;2023-05-07T08:32:58;11.27;;;9.60;;
1294;SDS011;640;48.310;11.728;2023-05-07T08:35:29;10.63;;;8.57;;
1294;SDS011;640;48.310;11.728;2023-05-07T08:37:58;10.75;;;8.35;;
1294;SDS011;640;48.310;11.728;2023-05-07T08:40:26;10.15;;;7.97;;
1294;SDS011;640;48.310;11.728;2023-05-07T08:42:54;8.88;;;7.38;;
1294;SDS011;640;48.310;11.728;2023-05-07T08:45:24;9.10;;;7.20;;
1294;SDS011;640;48.310;11.728;2023-05-07T08:47:55;8.25;;;5.85;;
1294;SDS011;640;48.310;11.728;2023-05-07T08:50:26;10.25;;;7.20;;
1294;SDS011;640;48.310;11.728;2023-05-07T08:52:56;8.30;;;6.75;;
1294;SDS011;640;48.310;11.728;2023-05-07T08:55:25;19.40;;;5.53;;
1294;SDS011;640;48.310;11.728;2023-05-07T08:57:53;7.85;;;7.05;;
1294;SDS011;640;48.310;11.728;2023-05-07T09:00:22;8.27;;;6.60;;
1294;SDS011;640;48.310;11.728;2023-05-07T09:02:50;9.02;;;6.18;;
1294;SDS011;640;48.310;11.728;2023-05-07T09:05:19;8.35;;;6.13;;
1294;SDS011;640;48.310;11.728;2023-05-07T09:07:49;6.95;;;5.68;;
1294;SDS011;640;48.310;11.728;2023-05-07T09:10:20;20.73;;;11.05;;
1294;SDS011;640;48.310;11.728;2023-05-07T09:12:49;6.55;;;4.50;;
1294;SDS011;640;48.310;11.728;2023-05-07T09:15:17;6.10;;;4.85;;
1294;SDS011;640;48.310;11.728;2023-05-07T09:17:46;5.50;;;4.43;;
1294;SDS011;640;48.310;11.728;2023-05-07T09:20:14;5.03;;;4.47;;
1294;SDS011;640;48.310;11.728;2023-05-07T09:22:44;5.20;;;3.90;;
1294;SDS011;640;48.310;11.728;2023-05-07T09:25:13;12.20;;;5.28;;
1294;SDS011;640;48.310;11.728;2023-05-07T09:27:42;7.13;;;3.65;;
1294;SDS011;640;48.310;11.728;2023-05-07T09:30:11;6.03;;;3.88;;
1294;SDS011;640;48.310;11.728;2023-05-07T09:32:40;6.72;;;3.50;;
1294;SDS011;640;48.310;11.728;2023-05-07T09:35:14;4.30;;;3.90;;
1294;SDS011;640;48.310;11.728;2023-05-07T09:37:43;4.93;;;3.25;;
1294;SDS011;640;48.310;11.728;2023-05-07T09:40:21;6.05;;;4.13;;
1294;SDS011;640;48.310;11.728;2023-05-07T09:42:50;5.88;;;4.43;;
1294;SDS011;640;48.310;11.728;2023-05-07T09:45:21;6.22;;;4.25;;
1294;SDS011;640;48.310;11.728;2023-05-07T09:47:50;5.68;;;4.38;;
1294;SDS011;640;48.310;11.728;2023-05-07T09:50:25;5.05;;;3.95;;
1294;SDS011;640;48.310;11.728;2023-05-07T09:52:55;4.32;;;3.88;;
1294;SDS011;640;48.310;11.728;2023-05-07T09:55:25;18.05;;;3.03;;
1294;SDS011;640;48.310;11.728;2023-05-07T09:57:54;3.67;;;2.63;;
1294;SDS011;640;48.310;11.728;2023-05-07T10:00:23;4.60;;;3.38;;
1294;SDS011;640;48.310;11.728;2023-05-07T10:02:52;6.57;;;4.05;;
1294;SDS011;640;48.310;11.728;2023-05-07T10:05:21;3.22;;;2.53;;
1294;SDS011;640;48.310;11.728;2023-05-07T10:07:50;6.20;;;4.60;;
1294;SDS011;640;48.310;11.728;2023-05-07T10:10:18;5.38;;;3.40;;
1294;SDS011;640;48.310;11.728;2023-05-07T10:12:48;4.85;;;3.88;;
1294;SDS011;640;48.310;11.728;2023-05-07T10:15:17;6.97;;;5.18;;
1294;SDS011;640;48.310;11.728;2023-05-07T10:17:46;6.50;;;4.40;;
1294;SDS011;640;48.310;11.728;2023-05-07T10:20:16;7.47;;;4.68;;
1294;SDS011;640;48.310;11.728;2023-05-07T10:22:45;5.68;;;4.05;;
1294;SDS011;640;48.310;11.728;2023-05-07T10:25:16;5.93;;;4.07;;
1294;SDS011;640;48.310;11.728;2023-05-07T10:27:46;5.65;;;3.92;;
1294;SDS011;640;48.310;11.728;2023-05-07T10:30:20;4.80;;;4.03;;
1294;SDS011;640;48.310;11.728;2023-05-07T10:32:59;6.75;;;4.40;;
1294;SDS011;640;48.310;11.728;2023-05-07T10:35:37;6.13;;;4.20;;
1294;SDS011;640;48.310;11.728;2023-05-07T10:38:08;7.68;;;4.00;;
1294;SDS011;640;48.310;11.728;2023-05-07T10:40:37;4.95;;;3.95;;
1294;SDS011;640;48.310;11.728;2023-05-07T10:43:06;4.60;;;3.33;;
1294;SDS011;640;48.310;11.728;2023-05-07T10:45:37;4.18;;;3.05;;
1294;SDS011;640;48.310;11.728;2023-05-07T10:48:05;5.45;;;3.75;;
1294;SDS011;640;48.310;11.728;2023-05-07T10:53:46;5.75;;;3.67;;
1294;SDS011;640;48.310;11.728;2023-05-07T10:56:24;5.32;;;3.88;;
1294;SDS011;640;48.310;11.728;2023-05-07T11:04:17;6.32;;;3.83;;
1294;SDS011;640;48.310;11.728;2023-05-07T11:09:59;6.07;;;3.47;;
1294;SDS011;640;48.310;11.728;2023-05-07T11:12:46;5.18;;;3.22;;
1294;SDS011;640;48.310;11.728;2023-05-07T11:15:38;2.97;;;2.40;;
1294;SDS011;640;48.310;11.728;2023-05-07T11:18:08;3.40;;;2.92;;
1294;SDS011;640;48.310;11.728;2023-05-07T11:20:44;2.38;;;2.00;;
1294;SDS011;640;48.310;11.728;2023-05-07T11:26:26;3.10;;;2.20;;
1294;SDS011;640;48.310;11.728;2023-05-07T11:28:55;4.00;;;2.70;;
1294;SDS011;640;48.310;11.728;2023-05-07T11:31:25;4.93;;;2.33;;
1294;SDS011;640;48.310;11.728;2023-05-07T11:33:55;3.63;;;2.40;;
1294;SDS011;640;48.310;11.728;2023-05-07T11:36:24;3.22;;;2.60;;
1294;SDS011;640;48.310;11.728;2023-05-07T11:38:52;4.88;;;3.10;;
1294;SDS011;640;48.310;11.728;2023-05-07T11:41:21;4.65;;;2.80;;
1294;SDS011;640;48.310;11.728;2023-05-07T11:43:56;3.78;;;2.40;;
1294;SDS011;640;48.310;11.728;2023-05-07T11:46:26;3.72;;;2.70;;
1294;SDS011;640;48.310;11.728;2023-05-07T11:48:56;4.40;;;2.65;;
1294;SDS011;640;48.310;11.728;2023-05-07T11:51:24;5.05;;;3.13;;
1294;SDS011;640;48.310;11.728;2023-05-07T11:53:53;4.25;;;2.90;;
1294;SDS011;640;48.310;11.728;2023-05-07T11:56:22;4.00;;;3.20;;
1294;SDS011;640;48.310;11.728;2023-05-07T11:58:50;5.43;;;3.72;;
1294;SDS011;640;48.310;11.728;2023-05-07T12:01:19;4.63;;;3.00;;
1294;SDS011;640;48.310;11.728;2023-05-07T12:03:48;4.90;;;3.08;;
1294;SDS011;640;48.310;11.728;2023-05-07T12:06:17;5.75;;;3.30;;
1294;SDS011;640;48.310;11.728;2023-05-07T12:08:46;4.05;;;3.25;;
1294;SDS011;640;48.310;11.728;2023-05-07T12:11:15;4.22;;;3.10;;
1294;SDS011;640;48.310;11.728;2023-05-07T12:13:45;2.70;;;2.40;;
1294;SDS011;640;48.310;11.728;2023-05-07T12:16:13;4.88;;;2.88;;
1294;SDS011;640;48.310;11.728;2023-05-07T12:18:42;3.83;;;3.00;;
1294;SDS011;640;48.310;11.728;2023-05-07T12:21:12;4.32;;;3.40;;
1294;SDS011;640;48.310;11.728;2023-05-07T12:23:40;3.75;;;2.80;;
1294;SDS011;640;48.310;11.728;2023-05-07T12:26:09;4.05;;;2.78;;
1294;SDS011;640;48.310;11.728;2023-05-07T12:28:37;5.78;;;2.50;;
1294;SDS011;640;48.310;11.728;2023-05-07T12:31:06;4.37;;;3.00;;
1294;SDS011;640;48.310;11.728;2023-05-07T12:33:35;2.70;;;2.45;;
1294;SDS011;640;48.310;11.728;2023-05-07T12:36:05;4.93;;;3.15;;
1294;SDS011;640;48.310;11.728;2023-05-07T12:38:38;6.60;;;3.00;;
1294;SDS011;640;48.310;11.728;2023-05-07T12:41:07;4.60;;;2.85;;
1294;SDS011;640;48.310;11.728;2023-05-07T12:43:36;4.43;;;2.60;;
1294;SDS011;640;48.310;11.728;2023-05-07T12:46:06;3.80;;;2.70;;
1294;SDS011;640;48.310;11.728;2023-05-07T12:48:36;7.25;;;3.90;;
1294;SDS011;640;48.310;11.728;2023-05-07T12:51:11;4.43;;;3.42;;
1294;SDS011;640;48.310;11.728;2023-05-07T12:53:42;4.55;;;2.95;;
1294;SDS011;640;48.310;11.728;2023-05-07T12:56:10;4.28;;;2.78;;
1294;SDS011;640;48.310;11.728;2023-05-07T12:58:39;3.35;;;2.33;;
1294;SDS011;640;48.310;11.728;2023-05-07T13:01:07;3.20;;;2.42;;
1294;SDS011;640;48.310;11.728;2023-05-07T13:03:37;3.17;;;2.72;;
1294;SDS011;640;48.310;11.728;2023-05-07T13:06:07;3.42;;;2.50;;
1294;SDS011;640;48.310;11.728;2023-05-07T13:08:36;4.40;;;2.80;;
1294;SDS011;640;48.310;11.728;2023-05-07T13:11:08;2.45;;;1.90;;
1294;SDS011;640;48.310;11.728;2023-05-07T13:13:38;3.92;;;2.20;;
1294;SDS011;640;48.310;11.728;2023-05-07T13:16:08;4.10;;;2.70;;
1294;SDS011;640;48.310;11.728;2023-05-07T13:18:41;4.38;;;2.33;;
1294;SDS011;640;48.310;11.728;2023-05-07T13:21:12;2.95;;;2.50;;
1294;SDS011;640;48.310;11.728;2023-05-07T13:23:40;2.97;;;2.30;;
1294;SDS011;640;48.310;11.728;2023-05-07T13:26:10;3.35;;;1.88;;
1294;SDS011;640;48.310;11.728;2023-05-07T13:28:52;2.67;;;2.10;;
1294;SDS011;640;48.310;11.728;2023-05-07T13:31:20;5.18;;;2.25;;
1294;SDS011;640;48.310;11.728;2023-05-07T13:33:49;2.72;;;1.90;;
1294;SDS011;640;48.310;11.728;2023-05-07T13:36:17;3.17;;;1.95;;
1294;SDS011;640;48.310;11.728;2023-05-07T13:38:45;5.43;;;2.50;;
1294;SDS011;640;48.310;11.728;2023-05-07T13:41:15;2.40;;;1.88;;
1294;SDS011;640;48.310;11.728;2023-05-07T13:43:44;3.85;;;2.20;;
1294;SDS011;640;48.310;11.728;2023-05-07T13:46:12;2.58;;;1.65;;
1294;SDS011;640;48.310;11.728;2023-05-07T13:48:40;3.60;;;1.90;;
1294;SDS011;640;48.310;11.728;2023-05-07T13:51:09;3.35;;;2.10;;
1294;SDS011;640;48.310;11.728;2023-05-07T13:53:37;2.92;;;1.95;;
1294;SDS011;640;48.310;11.728;2023-05-07T13:56:05;3.38;;;1.90;;
1294;SDS011;640;48.310;11.728;2023-05-07T13:58:35;3.45;;;2.30;;
1294;SDS011;640;48.310;11.728;2023-05-07T14:01:18;2.20;;;2.00;;
1294;SDS011;640;48.310;11.728;2023-05-07T14:03:46;2.33;;;2.00;;
1294;SDS011;640;48.310;11.728;2023-05-07T14:06:15;3.30;;;2.20;;
1294;SDS011;640;48.310;11.728;2023-05-07T14:08:43;2.67;;;2.00;;
1294;SDS011;640;48.310;11.728;2023-05-07T14:11:11;2.25;;;1.90;;
1294;SDS011;640;48.310;11.728;2023-05-07T14:13:41;3.40;;;2.00;;
1294;SDS011;640;48.310;11.728;2023-05-07T14:16:09;4.43;;;2.10;;
1294;SDS011;640;48.310;11.728;2023-05-07T14:18:37;2.92;;;1.92;;
1294;SDS011;640;48.310;11.728;2023-05-07T14:21:05;3.42;;;1.63;;
1294;SDS011;640;48.310;11.728;2023-05-07T14:23:36;3.08;;;1.88;;
1294;SDS011;640;48.310;11.728;2023-05-07T14:26:04;2.25;;;1.88;;
1294;SDS011;640;48.310;11.728;2023-05-07T14:28:33;2.90;;;1.65;;
1294;SDS011;640;48.310;11.728;2023-05-07T14:31:02;2.28;;;1.70;;
1294;SDS011;640;48.310;11.728;2023-05-07T14:33:31;2.63;;;1.80;;
1294;SDS011;640;48.310;11.728;2023-05-07T14:35:59;1.67;;;1.40;;
1294;SDS011;640;48.310;11.728;2023-05-07T14:38:27;1.98;;;1.70;;
1294;SDS011;640;48.310;11.728;2023-05-07T14:40:56;2.15;;;1.70;;
1294;SDS011;640;48.310;11.728;2023-05-07T14:43:24;2.30;;;1.50;;
1294;SDS011;640;48.310;11.728;2023-05-07T14:45:52;2.40;;;1.60;;
1294;SDS011;640;48.310;11.728;2023-05-07T14:48:22;3.22;;;1.60;;
1294;SDS011;640;48.310;11.728;2023-05-07T14:50:50;2.58;;;1.80;;
1294;SDS011;640;48.310;11.728;2023-05-07T14:53:18;3.53;;;1.60;;
1294;SDS011;640;48.310;11.728;2023-05-07T14:55:47;2.63;;;1.80;;
1294;SDS011;640;48.310;11.728;2023-05-07T14:58:15;2.80;;;1.50;;
1294;SDS011;640;48.310;11.728;2023-05-07T15:00:44;2.20;;;1.52;;
1294;SDS011;640;48.310;11.728;2023-05-07T15:03:13;2.35;;;1.95;;
1294;SDS011;640;48.310;11.728;2023-05-07T15:05:43;2.13;;;1.50;;
1294;SDS011;640;48.310;11.728;2023-05-07T15:08:12;1.98;;;1.65;;
1294;SDS011;640;48.310;11.728;2023-05-07T15:10:40;3.22;;;1.60;;
1294;SDS011;640;48.310;11.728;2023-05-07T15:13:08;4.95;;;1.88;;
1294;SDS011;640;48.310;11.728;2023-05-07T15:15:41;2.28;;;1.65;;
1294;SDS011;640;48.310;11.728;2023-05-07T15:18:10;3.42;;;1.80;;
1294;SDS011;640;48.310;11.728;2023-05-07T15:20:38;3.58;;;2.10;;
1294;SDS011;640;48.310;11.728;2023-05-07T15:23:08;2.22;;;1.85;;
1294;SDS011;640;48.310;11.728;2023-05-07T15:25:38;6.38;;;1.80;;
1294;SDS011;640;48.310;11.728;2023-05-07T15:28:07;2.38;;;1.95;;
1294;SDS011;640;48.310;11.728;2023-05-07T15:30:35;2.58;;;1.90;;
1294;SDS011;640;48.310;11.728;2023-05-07T15:33:03;2.40;;;1.77;;
1294;SDS011;640;48.310;11.728;2023-05-07T15:35:32;3.10;;;2.30;;
1294;SDS011;640;48.310;11.728;2023-05-07T15:38:00;3.05;;;1.70;;
1294;SDS011;640;48.310;11.728;2023-05-07T15:40:31;2.65;;;1.67;;
1294;SDS011;640;48.310;11.728;2023-05-07T15:43:02;2.70;;;1.70;;
1294;SDS011;640;48.310;11.728;2023-05-07T15:45:30;3.42;;;1.80;;